<?xml version="1.0" encoding="UTF-8" standalone="no" ?><gpx xmlns="http://www.topografix.com/GPX/1/1" xmlns:gpxx="http://www.garmin.com/xmlschemas/GpxExtensions/v3" xmlns:wptx1="http://www.garmin.com/xmlschemas/WaypointExtension/v1" xmlns:gpxtpx="http://www.garmin.com/xmlschemas/TrackPointExtension/v1" creator="GuideVTT.com" version="1.1" xmlns:xsi="http://www.w3.org/2001/XMLSchema-instance" xsi:schemaLocation="http://www.topografix.com/GPX/1/1 http://www.topografix.com/GPX/1/1/gpx.xsd http://www.garmin.com/xmlschemas/GpxExtensions/v3 http://www8.garmin.com/xmlschemas/GpxExtensionsv3.xsd http://www.garmin.com/xmlschemas/WaypointExtension/v1 http://www8.garmin.com/xmlschemas/WaypointExtensionv1.xsd http://www.garmin.com/xmlschemas/TrackPointExtension/v1 http://www.garmin.com/xmlschemas/TrackPointExtensionv1.xsd">
<metadata><link href="http://www.garmin.com"><text>Garmin International</text></link><time>2013-06-22T15:13:50Z</time></metadata>
<trk><name>rp_sortie12.gpx</name><extensions><gpxx:TrackExtension><gpxx:DisplayColor>Cyan</gpxx:DisplayColor></gpxx:TrackExtension></extensions><trkseg>
<trkpt lat="46.22461081" lon="7.27934361"><ele>503.868164</ele><time>2006-06-18T08:44:55Z</time></trkpt>
<trkpt lat="46.22461081" lon="7.27940798"><ele>472.625366</ele><time>2006-06-18T08:45:03Z</time></trkpt>
<trkpt lat="46.22469664" lon="7.27930069"><ele>475.028687</ele><time>2006-06-18T08:45:14Z</time></trkpt>
<trkpt lat="46.22473955" lon="7.27930069"><ele>475.509277</ele><time>2006-06-18T08:45:18Z</time></trkpt>
<trkpt lat="46.22491121" lon="7.27942944"><ele>475.509277</ele><time>2006-06-18T08:45:26Z</time></trkpt>
<trkpt lat="46.22525454" lon="7.27960110"><ele>480.796631</ele><time>2006-06-18T08:45:39Z</time></trkpt>
<trkpt lat="46.22553349" lon="7.27985859"><ele>484.161133</ele><time>2006-06-18T08:45:54Z</time></trkpt>
<trkpt lat="46.22559786" lon="7.28013754"><ele>487.525635</ele><time>2006-06-18T08:46:04Z</time></trkpt>
<trkpt lat="46.22564077" lon="7.28080273"><ele>488.487183</ele><time>2006-06-18T08:46:15Z</time></trkpt>
<trkpt lat="46.22581244" lon="7.28202581"><ele>489.929077</ele><time>2006-06-18T08:46:38Z</time></trkpt>
<trkpt lat="46.22572660" lon="7.28288412"><ele>495.216187</ele><time>2006-06-18T08:46:50Z</time></trkpt>
<trkpt lat="46.22572660" lon="7.28344202"><ele>497.138916</ele><time>2006-06-18T08:47:06Z</time></trkpt>
<trkpt lat="46.22589827" lon="7.28339911"><ele>495.216187</ele><time>2006-06-18T08:47:20Z</time></trkpt>
<trkpt lat="46.22581244" lon="7.28350639"><ele>496.177734</ele><time>2006-06-18T08:47:32Z</time></trkpt>
<trkpt lat="46.22581244" lon="7.28342056"><ele>497.138916</ele><time>2006-06-18T08:47:41Z</time></trkpt>
<trkpt lat="46.22587681" lon="7.28339911"><ele>496.658325</ele><time>2006-06-18T08:47:46Z</time></trkpt>
<trkpt lat="46.22619867" lon="7.28342056"><ele>498.580933</ele><time>2006-06-18T08:48:00Z</time></trkpt>
<trkpt lat="46.22654200" lon="7.28329182"><ele>501.464844</ele><time>2006-06-18T08:48:11Z</time></trkpt>
<trkpt lat="46.22690678" lon="7.28292704"><ele>500.50354</ele><time>2006-06-18T08:48:28Z</time></trkpt>
<trkpt lat="46.22699261" lon="7.28303432"><ele>500.984131</ele><time>2006-06-18T08:48:34Z</time></trkpt>
<trkpt lat="46.22720718" lon="7.28408575"><ele>504.829468</ele><time>2006-06-18T08:48:48Z</time></trkpt>
<trkpt lat="46.22729301" lon="7.28464365"><ele>505.790894</ele><time>2006-06-18T08:48:59Z</time></trkpt>
<trkpt lat="46.22729301" lon="7.28475094"><ele>504.829468</ele><time>2006-06-18T08:49:03Z</time></trkpt>
<trkpt lat="46.22720718" lon="7.28502989"><ele>503.868164</ele><time>2006-06-18T08:49:08Z</time></trkpt>
<trkpt lat="46.22735739" lon="7.28621006"><ele>500.984131</ele><time>2006-06-18T08:49:21Z</time></trkpt>
<trkpt lat="46.22742176" lon="7.28739023"><ele>499.542236</ele><time>2006-06-18T08:49:33Z</time></trkpt>
<trkpt lat="46.22759342" lon="7.28835583"><ele>500.984131</ele><time>2006-06-18T08:49:46Z</time></trkpt>
<trkpt lat="46.22763634" lon="7.28893518"><ele>500.984131</ele><time>2006-06-18T08:49:54Z</time></trkpt>
<trkpt lat="46.22757196" lon="7.28964329"><ele>500.022949</ele><time>2006-06-18T08:50:03Z</time></trkpt>
<trkpt lat="46.22770071" lon="7.29065180"><ele>500.50354</ele><time>2006-06-18T08:50:16Z</time></trkpt>
<trkpt lat="46.22804403" lon="7.29174614"><ele>502.906738</ele><time>2006-06-18T08:50:33Z</time></trkpt>
<trkpt lat="46.22855902" lon="7.29281902"><ele>505.310181</ele><time>2006-06-18T08:50:49Z</time></trkpt>
<trkpt lat="46.22858047" lon="7.29333401"><ele>503.868164</ele><time>2006-06-18T08:50:56Z</time></trkpt>
<trkpt lat="46.22838736" lon="7.29425669"><ele>502.426147</ele><time>2006-06-18T08:51:09Z</time></trkpt>
<trkpt lat="46.22845173" lon="7.29515791"><ele>502.426147</ele><time>2006-06-18T08:51:28Z</time></trkpt>
<trkpt lat="46.22860193" lon="7.29537249"><ele>503.868164</ele><time>2006-06-18T08:51:36Z</time></trkpt>
<trkpt lat="46.22877359" lon="7.29573727"><ele>503.387451</ele><time>2006-06-18T08:51:43Z</time></trkpt>
<trkpt lat="46.22885942" lon="7.29663849"><ele>504.348877</ele><time>2006-06-18T08:51:57Z</time></trkpt>
<trkpt lat="46.22909546" lon="7.29753971"><ele>504.829468</ele><time>2006-06-18T08:52:11Z</time></trkpt>
<trkpt lat="46.22928858" lon="7.29854822"><ele>504.829468</ele><time>2006-06-18T08:52:27Z</time></trkpt>
<trkpt lat="46.22928858" lon="7.29891300"><ele>504.348877</ele><time>2006-06-18T08:52:32Z</time></trkpt>
<trkpt lat="46.22984648" lon="7.30071545"><ele>507.232788</ele><time>2006-06-18T08:53:00Z</time></trkpt>
<trkpt lat="46.22995377" lon="7.30155230"><ele>508.194092</ele><time>2006-06-18T08:53:13Z</time></trkpt>
<trkpt lat="46.22995377" lon="7.30234623"><ele>510.116699</ele><time>2006-06-18T08:53:26Z</time></trkpt>
<trkpt lat="46.22999668" lon="7.30339766"><ele>511.078003</ele><time>2006-06-18T08:53:43Z</time></trkpt>
<trkpt lat="46.23018980" lon="7.30432034"><ele>512.039429</ele><time>2006-06-18T08:54:01Z</time></trkpt>
<trkpt lat="46.23074770" lon="7.30648756"><ele>512.52002</ele><time>2006-06-18T08:54:37Z</time></trkpt>
<trkpt lat="46.23096228" lon="7.30758190"><ele>514.92334</ele><time>2006-06-18T08:54:55Z</time></trkpt>
<trkpt lat="46.23134851" lon="7.30844021"><ele>517.32666</ele><time>2006-06-18T08:55:11Z</time></trkpt>
<trkpt lat="46.23154163" lon="7.30895519"><ele>516.845947</ele><time>2006-06-18T08:55:22Z</time></trkpt>
<trkpt lat="46.23162746" lon="7.30940580"><ele>517.807251</ele><time>2006-06-18T08:55:30Z</time></trkpt>
<trkpt lat="46.23164892" lon="7.30983496"><ele>517.32666</ele><time>2006-06-18T08:55:37Z</time></trkpt>
<trkpt lat="46.23214245" lon="7.31110096"><ele>520.691284</ele><time>2006-06-18T08:56:03Z</time></trkpt>
<trkpt lat="46.23233557" lon="7.31142282"><ele>519.249268</ele><time>2006-06-18T08:56:12Z</time></trkpt>
<trkpt lat="46.23261452" lon="7.31238842"><ele>518.768555</ele><time>2006-06-18T08:56:36Z</time></trkpt>
<trkpt lat="46.23272181" lon="7.31238842"><ele>518.768555</ele><time>2006-06-18T08:56:40Z</time></trkpt>
<trkpt lat="46.23315096" lon="7.31221676"><ele>521.652588</ele><time>2006-06-18T08:56:53Z</time></trkpt>
<trkpt lat="46.23418093" lon="7.31172323"><ele>526.459106</ele><time>2006-06-18T08:57:23Z</time></trkpt>
<trkpt lat="46.23458862" lon="7.31165886"><ele>528.862549</ele><time>2006-06-18T08:57:36Z</time></trkpt>
<trkpt lat="46.23469591" lon="7.31176615"><ele>530.304443</ele><time>2006-06-18T08:57:43Z</time></trkpt>
<trkpt lat="46.23510361" lon="7.31232405"><ele>536.072388</ele><time>2006-06-18T08:58:11Z</time></trkpt>
<trkpt lat="46.23613358" lon="7.31316090"><ele>546.16626</ele><time>2006-06-18T08:59:06Z</time></trkpt>
<trkpt lat="46.23679876" lon="7.31378317"><ele>553.856689</ele><time>2006-06-18T08:59:41Z</time></trkpt>
<trkpt lat="46.23714209" lon="7.31397629"><ele>558.182861</ele><time>2006-06-18T08:59:58Z</time></trkpt>
<trkpt lat="46.23748541" lon="7.31395483"><ele>562.508545</ele><time>2006-06-18T09:00:12Z</time></trkpt>
<trkpt lat="46.23832226" lon="7.31408358"><ele>569.237793</ele><time>2006-06-18T09:00:49Z</time></trkpt>
<trkpt lat="46.23911619" lon="7.31399775"><ele>575.486328</ele><time>2006-06-18T09:01:22Z</time></trkpt>
<trkpt lat="46.23982430" lon="7.31444836"><ele>583.176758</ele><time>2006-06-18T09:01:55Z</time></trkpt>
<trkpt lat="46.24025345" lon="7.31462002"><ele>587.021973</ele><time>2006-06-18T09:02:14Z</time></trkpt>
<trkpt lat="46.24038219" lon="7.31487751"><ele>588.464355</ele><time>2006-06-18T09:02:25Z</time></trkpt>
<trkpt lat="46.24036074" lon="7.31502771"><ele>588.945068</ele><time>2006-06-18T09:02:31Z</time></trkpt>
<trkpt lat="46.23995304" lon="7.31534958"><ele>595.193359</ele><time>2006-06-18T09:02:52Z</time></trkpt>
<trkpt lat="46.23973846" lon="7.31567144"><ele>598.077393</ele><time>2006-06-18T09:03:07Z</time></trkpt>
<trkpt lat="46.23956680" lon="7.31603622"><ele>600.480713</ele><time>2006-06-18T09:03:22Z</time></trkpt>
<trkpt lat="46.24023199" lon="7.31637955"><ele>605.768066</ele><time>2006-06-18T09:03:58Z</time></trkpt>
<trkpt lat="46.24072552" lon="7.31655121"><ele>609.613281</ele><time>2006-06-18T09:04:23Z</time></trkpt>
<trkpt lat="46.24096155" lon="7.31644392"><ele>611.055176</ele><time>2006-06-18T09:04:37Z</time></trkpt>
<trkpt lat="46.24121904" lon="7.31640100"><ele>613.458496</ele><time>2006-06-18T09:04:51Z</time></trkpt>
<trkpt lat="46.24143362" lon="7.31652975"><ele>615.381104</ele><time>2006-06-18T09:05:04Z</time></trkpt>
<trkpt lat="46.24162674" lon="7.31674433"><ele>619.707031</ele><time>2006-06-18T09:05:20Z</time></trkpt>
<trkpt lat="46.24151945" lon="7.31693745"><ele>622.110352</ele><time>2006-06-18T09:05:30Z</time></trkpt>
<trkpt lat="46.24139071" lon="7.31725931"><ele>623.071777</ele><time>2006-06-18T09:05:42Z</time></trkpt>
<trkpt lat="46.24156237" lon="7.31770992"><ele>624.994385</ele><time>2006-06-18T09:05:57Z</time></trkpt>
<trkpt lat="46.24177694" lon="7.31781721"><ele>626.916992</ele><time>2006-06-18T09:06:09Z</time></trkpt>
<trkpt lat="46.24209881" lon="7.31783867"><ele>629.800781</ele><time>2006-06-18T09:06:24Z</time></trkpt>
<trkpt lat="46.24284983" lon="7.31813908"><ele>638.933594</ele><time>2006-06-18T09:07:01Z</time></trkpt>
<trkpt lat="46.24317169" lon="7.31837511"><ele>643.259277</ele><time>2006-06-18T09:07:19Z</time></trkpt>
<trkpt lat="46.24342918" lon="7.31848240"><ele>645.662598</ele><time>2006-06-18T09:07:33Z</time></trkpt>
<trkpt lat="46.24372959" lon="7.31828928"><ele>646.143311</ele><time>2006-06-18T09:07:49Z</time></trkpt>
<trkpt lat="46.24422312" lon="7.31773138"><ele>652.872559</ele><time>2006-06-18T09:08:22Z</time></trkpt>
<trkpt lat="46.24424458" lon="7.31736660"><ele>654.795166</ele><time>2006-06-18T09:08:36Z</time></trkpt>
<trkpt lat="46.24392271" lon="7.31539249"><ele>667.292236</ele><time>2006-06-18T09:09:48Z</time></trkpt>
<trkpt lat="46.24392271" lon="7.31500626"><ele>669.695801</ele><time>2006-06-18T09:10:02Z</time></trkpt>
<trkpt lat="46.24405146" lon="7.31470585"><ele>671.618164</ele><time>2006-06-18T09:10:15Z</time></trkpt>
<trkpt lat="46.24409437" lon="7.31442690"><ele>674.502197</ele><time>2006-06-18T09:10:27Z</time></trkpt>
<trkpt lat="46.24403000" lon="7.31404066"><ele>678.828125</ele><time>2006-06-18T09:10:42Z</time></trkpt>
<trkpt lat="46.24403000" lon="7.31365442"><ele>682.192627</ele><time>2006-06-18T09:10:57Z</time></trkpt>
<trkpt lat="46.24415874" lon="7.31277466"><ele>689.402588</ele><time>2006-06-18T09:11:32Z</time></trkpt>
<trkpt lat="46.24435186" lon="7.31262445"><ele>690.364014</ele><time>2006-06-18T09:11:45Z</time></trkpt>
<trkpt lat="46.24458790" lon="7.31256008"><ele>693.728516</ele><time>2006-06-18T09:11:58Z</time></trkpt>
<trkpt lat="46.24480247" lon="7.31264591"><ele>696.612549</ele><time>2006-06-18T09:12:11Z</time></trkpt>
<trkpt lat="46.24460936" lon="7.31298923"><ele>699.977051</ele><time>2006-06-18T09:12:31Z</time></trkpt>
<trkpt lat="46.24465227" lon="7.31333256"><ele>701.899902</ele><time>2006-06-18T09:12:44Z</time></trkpt>
<trkpt lat="46.24501705" lon="7.31464148"><ele>710.551514</ele><time>2006-06-18T09:13:39Z</time></trkpt>
<trkpt lat="46.24533892" lon="7.31610060"><ele>722.568115</ele><time>2006-06-18T09:14:37Z</time></trkpt>
<trkpt lat="46.24551058" lon="7.31753826"><ele>731.219971</ele><time>2006-06-18T09:15:31Z</time></trkpt>
<trkpt lat="46.24559641" lon="7.31755972"><ele>731.700439</ele><time>2006-06-18T09:15:36Z</time></trkpt>
<trkpt lat="46.24563932" lon="7.31749535"><ele>732.662109</ele><time>2006-06-18T09:15:40Z</time></trkpt>
<trkpt lat="46.24566078" lon="7.31704473"><ele>736.987793</ele><time>2006-06-18T09:15:57Z</time></trkpt>
<trkpt lat="46.24589682" lon="7.31588602"><ele>745.158936</ele><time>2006-06-18T09:16:39Z</time></trkpt>
<trkpt lat="46.24611139" lon="7.31451273"><ele>756.694824</ele><time>2006-06-18T09:17:31Z</time></trkpt>
<trkpt lat="46.24628305" lon="7.31408358"><ele>759.578857</ele><time>2006-06-18T09:17:49Z</time></trkpt>
<trkpt lat="46.24656200" lon="7.31363297"><ele>761.982178</ele><time>2006-06-18T09:18:10Z</time></trkpt>
<trkpt lat="46.24681950" lon="7.31343985"><ele>762.943359</ele><time>2006-06-18T09:18:25Z</time></trkpt>
<trkpt lat="46.24709845" lon="7.31361151"><ele>766.788818</ele><time>2006-06-18T09:18:42Z</time></trkpt>
<trkpt lat="46.24735594" lon="7.31386900"><ele>769.672852</ele><time>2006-06-18T09:18:59Z</time></trkpt>
<trkpt lat="46.24737740" lon="7.31399775"><ele>769.672852</ele><time>2006-06-18T09:19:04Z</time></trkpt>
<trkpt lat="46.24701262" lon="7.31425524"><ele>773.998535</ele><time>2006-06-18T09:19:24Z</time></trkpt>
<trkpt lat="46.24679804" lon="7.31504917"><ele>781.20874</ele><time>2006-06-18T09:19:52Z</time></trkpt>
<trkpt lat="46.24684095" lon="7.31545687"><ele>783.131104</ele><time>2006-06-18T09:20:06Z</time></trkpt>
<trkpt lat="46.24718428" lon="7.31678724"><ele>792.263672</ele><time>2006-06-18T09:20:58Z</time></trkpt>
<trkpt lat="46.24731302" lon="7.31796741"><ele>800.435059</ele><time>2006-06-18T09:21:43Z</time></trkpt>
<trkpt lat="46.24739885" lon="7.31822491"><ele>802.357422</ele><time>2006-06-18T09:21:54Z</time></trkpt>
<trkpt lat="46.24757051" lon="7.31852531"><ele>804.280273</ele><time>2006-06-18T09:22:08Z</time></trkpt>
<trkpt lat="46.24767780" lon="7.31886864"><ele>806.68335</ele><time>2006-06-18T09:22:23Z</time></trkpt>
<trkpt lat="46.24752760" lon="7.31916904"><ele>810.047852</ele><time>2006-06-18T09:22:37Z</time></trkpt>
<trkpt lat="46.24748468" lon="7.31951237"><ele>813.893311</ele><time>2006-06-18T09:22:50Z</time></trkpt>
<trkpt lat="46.24759197" lon="7.31992006"><ele>816.296631</ele><time>2006-06-18T09:23:06Z</time></trkpt>
<trkpt lat="46.24797821" lon="7.32095003"><ele>823.987061</ele><time>2006-06-18T09:23:52Z</time></trkpt>
<trkpt lat="46.24799967" lon="7.32095003"><ele>823.987061</ele><time>2006-06-18T09:23:54Z</time></trkpt>
<trkpt lat="46.24802113" lon="7.32067108"><ele>825.428955</ele><time>2006-06-18T09:24:06Z</time></trkpt>
<trkpt lat="46.24799967" lon="7.32022047"><ele>827.832275</ele><time>2006-06-18T09:24:21Z</time></trkpt>
<trkpt lat="46.24802113" lon="7.31970549"><ele>831.197266</ele><time>2006-06-18T09:24:36Z</time></trkpt>
<trkpt lat="46.24827862" lon="7.31925488"><ele>830.716553</ele><time>2006-06-18T09:24:47Z</time></trkpt>
<trkpt lat="46.24832153" lon="7.31884718"><ele>828.313232</ele><time>2006-06-18T09:24:53Z</time></trkpt>
<trkpt lat="46.24827862" lon="7.31871843"><ele>827.832275</ele><time>2006-06-18T09:24:55Z</time></trkpt>
<trkpt lat="46.24827862" lon="7.31850386"><ele>825.909668</ele><time>2006-06-18T09:24:58Z</time></trkpt>
<trkpt lat="46.24853611" lon="7.31766701"><ele>829.274414</ele><time>2006-06-18T09:25:22Z</time></trkpt>
<trkpt lat="46.24860048" lon="7.31725931"><ele>832.158447</ele><time>2006-06-18T09:25:36Z</time></trkpt>
<trkpt lat="46.24872923" lon="7.31676579"><ele>838.406982</ele><time>2006-06-18T09:25:53Z</time></trkpt>
<trkpt lat="46.24887943" lon="7.31642246"><ele>840.32959</ele><time>2006-06-18T09:26:06Z</time></trkpt>
<trkpt lat="46.24941587" lon="7.31590748"><ele>836.964844</ele><time>2006-06-18T09:26:21Z</time></trkpt>
<trkpt lat="46.24982357" lon="7.31573582"><ele>832.63916</ele><time>2006-06-18T09:26:26Z</time></trkpt>
<trkpt lat="46.25096083" lon="7.31569290"><ele>828.313232</ele><time>2006-06-18T09:26:37Z</time></trkpt>
<trkpt lat="46.25169039" lon="7.31620789"><ele>823.987061</ele><time>2006-06-18T09:26:45Z</time></trkpt>
<trkpt lat="46.25261307" lon="7.31646538"><ele>817.258057</ele><time>2006-06-18T09:26:54Z</time></trkpt>
<trkpt lat="46.25299931" lon="7.31650829"><ele>815.335449</ele><time>2006-06-18T09:26:58Z</time></trkpt>
<trkpt lat="46.25353575" lon="7.31614351"><ele>811.970703</ele><time>2006-06-18T09:27:05Z</time></trkpt>
<trkpt lat="46.25360012" lon="7.31603622"><ele>811.48999</ele><time>2006-06-18T09:27:06Z</time></trkpt>
<trkpt lat="46.25405073" lon="7.31567144"><ele>806.68335</ele><time>2006-06-18T09:27:12Z</time></trkpt>
<trkpt lat="46.25454426" lon="7.31597185"><ele>803.799561</ele><time>2006-06-18T09:27:17Z</time></trkpt>
<trkpt lat="46.25480175" lon="7.31652975"><ele>804.280273</ele><time>2006-06-18T09:27:21Z</time></trkpt>
<trkpt lat="46.25512362" lon="7.31698036"><ele>801.39624</ele><time>2006-06-18T09:27:25Z</time></trkpt>
<trkpt lat="46.25533819" lon="7.31736660"><ele>798.512207</ele><time>2006-06-18T09:27:28Z</time></trkpt>
<trkpt lat="46.25591755" lon="7.31762409"><ele>797.551025</ele><time>2006-06-18T09:27:34Z</time></trkpt>
<trkpt lat="46.25634670" lon="7.31725931"><ele>792.263672</ele><time>2006-06-18T09:27:39Z</time></trkpt>
<trkpt lat="46.25688314" lon="7.31738806"><ele>786.976318</ele><time>2006-06-18T09:27:44Z</time></trkpt>
<trkpt lat="46.25767708" lon="7.31743097"><ele>786.015137</ele><time>2006-06-18T09:27:51Z</time></trkpt>
<trkpt lat="46.25817060" lon="7.31768847"><ele>783.611816</ele><time>2006-06-18T09:27:56Z</time></trkpt>
<trkpt lat="46.25859976" lon="7.31764555"><ele>780.247314</ele><time>2006-06-18T09:28:01Z</time></trkpt>
<trkpt lat="46.25892162" lon="7.31753826"><ele>778.805176</ele><time>2006-06-18T09:28:05Z</time></trkpt>
<trkpt lat="46.25926495" lon="7.31773138"><ele>778.324463</ele><time>2006-06-18T09:28:10Z</time></trkpt>
<trkpt lat="46.25945807" lon="7.31796741"><ele>778.324463</ele><time>2006-06-18T09:28:14Z</time></trkpt>
<trkpt lat="46.26018763" lon="7.31848240"><ele>778.805176</ele><time>2006-06-18T09:28:35Z</time></trkpt>
<trkpt lat="46.26048803" lon="7.31899738"><ele>776.882568</ele><time>2006-06-18T09:28:48Z</time></trkpt>
<trkpt lat="46.26085281" lon="7.31910467"><ele>779.766357</ele><time>2006-06-18T09:28:59Z</time></trkpt>
<trkpt lat="46.26138926" lon="7.31904030"><ele>783.131104</ele><time>2006-06-18T09:29:15Z</time></trkpt>
<trkpt lat="46.26203299" lon="7.31923342"><ele>789.379639</ele><time>2006-06-18T09:29:45Z</time></trkpt>
<trkpt lat="46.26226902" lon="7.31944799"><ele>790.821533</ele><time>2006-06-18T09:29:59Z</time></trkpt>
<trkpt lat="46.26254797" lon="7.31964111"><ele>793.705566</ele><time>2006-06-18T09:30:16Z</time></trkpt>
<trkpt lat="46.26282692" lon="7.31976986"><ele>797.551025</ele><time>2006-06-18T09:30:28Z</time></trkpt>
<trkpt lat="46.26319170" lon="7.32026339"><ele>801.876953</ele><time>2006-06-18T09:30:50Z</time></trkpt>
<trkpt lat="46.26344919" lon="7.32030630"><ele>804.760742</ele><time>2006-06-18T09:31:04Z</time></trkpt>
<trkpt lat="46.26398563" lon="7.32028484"><ele>812.932129</ele><time>2006-06-18T09:31:36Z</time></trkpt>
<trkpt lat="46.26426458" lon="7.32034922"><ele>813.893311</ele><time>2006-06-18T09:31:52Z</time></trkpt>
<trkpt lat="46.26441479" lon="7.32047796"><ele>815.816162</ele><time>2006-06-18T09:32:04Z</time></trkpt>
<trkpt lat="46.26458645" lon="7.32069254"><ele>819.661377</ele><time>2006-06-18T09:32:19Z</time></trkpt>
<trkpt lat="46.26482248" lon="7.32088566"><ele>822.064453</ele><time>2006-06-18T09:32:38Z</time></trkpt>
<trkpt lat="46.26503706" lon="7.32095003"><ele>823.987061</ele><time>2006-06-18T09:32:52Z</time></trkpt>
<trkpt lat="46.26553059" lon="7.32127190"><ele>827.832275</ele><time>2006-06-18T09:33:24Z</time></trkpt>
<trkpt lat="46.26568079" lon="7.32161522"><ele>829.274414</ele><time>2006-06-18T09:33:42Z</time></trkpt>
<trkpt lat="46.26574516" lon="7.32163668"><ele>830.716553</ele><time>2006-06-18T09:33:46Z</time></trkpt>
<trkpt lat="46.26593828" lon="7.32155085"><ele>836.484375</ele><time>2006-06-18T09:33:59Z</time></trkpt>
<trkpt lat="46.26617432" lon="7.32155085"><ele>843.213379</ele><time>2006-06-18T09:34:13Z</time></trkpt>
<trkpt lat="46.26638889" lon="7.32161522"><ele>847.058838</ele><time>2006-06-18T09:34:27Z</time></trkpt>
<trkpt lat="46.26662493" lon="7.32150793"><ele>852.345947</ele><time>2006-06-18T09:34:43Z</time></trkpt>
<trkpt lat="46.26688242" lon="7.32148647"><ele>858.594482</ele><time>2006-06-18T09:34:59Z</time></trkpt>
<trkpt lat="46.26709700" lon="7.32161522"><ele>863.401367</ele><time>2006-06-18T09:35:14Z</time></trkpt>
<trkpt lat="46.26754761" lon="7.32221603"><ele>866.285156</ele><time>2006-06-18T09:35:50Z</time></trkpt>
<trkpt lat="46.26771927" lon="7.32240915"><ele>869.649902</ele><time>2006-06-18T09:36:03Z</time></trkpt>
<trkpt lat="46.26795530" lon="7.32262373"><ele>871.572266</ele><time>2006-06-18T09:36:18Z</time></trkpt>
<trkpt lat="46.26847029" lon="7.32285976"><ele>878.301758</ele><time>2006-06-18T09:36:48Z</time></trkpt>
<trkpt lat="46.26872778" lon="7.32318163"><ele>879.743652</ele><time>2006-06-18T09:37:05Z</time></trkpt>
<trkpt lat="46.26904964" lon="7.32371807"><ele>885.511475</ele><time>2006-06-18T09:37:34Z</time></trkpt>
<trkpt lat="46.26922131" lon="7.32382536"><ele>888.395508</ele><time>2006-06-18T09:37:45Z</time></trkpt>
<trkpt lat="46.26941442" lon="7.32382536"><ele>890.798584</ele><time>2006-06-18T09:37:59Z</time></trkpt>
<trkpt lat="46.26962900" lon="7.32376099"><ele>894.163574</ele><time>2006-06-18T09:38:11Z</time></trkpt>
<trkpt lat="46.27005816" lon="7.32382536"><ele>899.450684</ele><time>2006-06-18T09:38:37Z</time></trkpt>
<trkpt lat="46.27020836" lon="7.32354641"><ele>900.892578</ele><time>2006-06-18T09:38:49Z</time></trkpt>
<trkpt lat="46.27027273" lon="7.32322454"><ele>903.295898</ele><time>2006-06-18T09:39:00Z</time></trkpt>
<trkpt lat="46.27042294" lon="7.32275248"><ele>910.505859</ele><time>2006-06-18T09:39:17Z</time></trkpt>
<trkpt lat="46.27087355" lon="7.32230186"><ele>912.90918</ele><time>2006-06-18T09:39:43Z</time></trkpt>
<trkpt lat="46.27087355" lon="7.32217312"><ele>912.90918</ele><time>2006-06-18T09:39:49Z</time></trkpt>
<trkpt lat="46.27089500" lon="7.32213020"><ele>912.428467</ele><time>2006-06-18T09:40:03Z</time></trkpt>
<trkpt lat="46.27095938" lon="7.32208729"><ele>912.428467</ele><time>2006-06-18T09:41:26Z</time></trkpt>
<trkpt lat="46.27068043" lon="7.32133627"><ele>912.428467</ele><time>2006-06-18T09:42:32Z</time></trkpt>
<trkpt lat="46.26999378" lon="7.32062817"><ele>912.90918</ele><time>2006-06-18T09:42:43Z</time></trkpt>
<trkpt lat="46.26965046" lon="7.32060671"><ele>913.870361</ele><time>2006-06-18T09:42:58Z</time></trkpt>
<trkpt lat="46.26937151" lon="7.32028484"><ele>913.870361</ele><time>2006-06-18T09:43:16Z</time></trkpt>
<trkpt lat="46.26913548" lon="7.31994152"><ele>914.351074</ele><time>2006-06-18T09:43:31Z</time></trkpt>
<trkpt lat="46.26887798" lon="7.31966257"><ele>918.677002</ele><time>2006-06-18T09:43:46Z</time></trkpt>
<trkpt lat="46.26864195" lon="7.31929779"><ele>927.329102</ele><time>2006-06-18T09:44:01Z</time></trkpt>
<trkpt lat="46.26816988" lon="7.31869698"><ele>939.825928</ele><time>2006-06-18T09:44:31Z</time></trkpt>
<trkpt lat="46.26827717" lon="7.31867552"><ele>939.825928</ele><time>2006-06-18T09:44:37Z</time></trkpt>
<trkpt lat="46.26864195" lon="7.31908321"><ele>944.1521</ele><time>2006-06-18T09:44:56Z</time></trkpt>
<trkpt lat="46.26889944" lon="7.31929779"><ele>947.035889</ele><time>2006-06-18T09:45:10Z</time></trkpt>
<trkpt lat="46.26947880" lon="7.31957674"><ele>949.919922</ele><time>2006-06-18T09:45:38Z</time></trkpt>
<trkpt lat="46.26977921" lon="7.31953382"><ele>953.284424</ele><time>2006-06-18T09:45:50Z</time></trkpt>
<trkpt lat="46.27007961" lon="7.31955528"><ele>956.64917</ele><time>2006-06-18T09:46:04Z</time></trkpt>
<trkpt lat="46.27059460" lon="7.31998444"><ele>963.858887</ele><time>2006-06-18T09:46:34Z</time></trkpt>
<trkpt lat="46.27143145" lon="7.32017756"><ele>965.781738</ele><time>2006-06-18T09:47:10Z</time></trkpt>
<trkpt lat="46.27175331" lon="7.32007027"><ele>968.665527</ele><time>2006-06-18T09:47:26Z</time></trkpt>
<trkpt lat="46.27196789" lon="7.32013464"><ele>969.14624</ele><time>2006-06-18T09:47:37Z</time></trkpt>
<trkpt lat="46.27252579" lon="7.32064962"><ele>970.588135</ele><time>2006-06-18T09:48:08Z</time></trkpt>
<trkpt lat="46.27291203" lon="7.32090712"><ele>971.549316</ele><time>2006-06-18T09:48:27Z</time></trkpt>
<trkpt lat="46.27321243" lon="7.32118607"><ele>972.030273</ele><time>2006-06-18T09:48:44Z</time></trkpt>
<trkpt lat="46.27346992" lon="7.32152939"><ele>977.798096</ele><time>2006-06-18T09:48:59Z</time></trkpt>
<trkpt lat="46.27366304" lon="7.32195854"><ele>985.969238</ele><time>2006-06-18T09:49:15Z</time></trkpt>
<trkpt lat="46.27374887" lon="7.32238770"><ele>991.256592</ele><time>2006-06-18T09:49:29Z</time></trkpt>
<trkpt lat="46.27387762" lon="7.32277393"><ele>998.947021</ele><time>2006-06-18T09:49:44Z</time></trkpt>
<trkpt lat="46.27400637" lon="7.32288122"><ele>1000.869629</ele><time>2006-06-18T09:49:51Z</time></trkpt>
<trkpt lat="46.27415657" lon="7.32268810"><ele>1001.831055</ele><time>2006-06-18T09:50:02Z</time></trkpt>
<trkpt lat="46.27396345" lon="7.32228041"><ele>1004.715088</ele><time>2006-06-18T09:50:16Z</time></trkpt>
<trkpt lat="46.27392054" lon="7.32176542"><ele>1006.156982</ele><time>2006-06-18T09:50:32Z</time></trkpt>
<trkpt lat="46.27359867" lon="7.32125044"><ele>1013.847412</ele><time>2006-06-18T09:50:52Z</time></trkpt>
<trkpt lat="46.27325535" lon="7.32056379"><ele>1019.134766</ele><time>2006-06-18T09:51:18Z</time></trkpt>
<trkpt lat="46.27308369" lon="7.32028484"><ele>1020.576904</ele><time>2006-06-18T09:51:30Z</time></trkpt>
<trkpt lat="46.27274036" lon="7.31992006"><ele>1026.825439</ele><time>2006-06-18T09:51:48Z</time></trkpt>
<trkpt lat="46.27246141" lon="7.31946945"><ele>1028.267334</ele><time>2006-06-18T09:52:07Z</time></trkpt>
<trkpt lat="46.27218246" lon="7.31927633"><ele>1035.957764</ele><time>2006-06-18T09:52:22Z</time></trkpt>
<trkpt lat="46.27203226" lon="7.31925488"><ele>1037.399902</ele><time>2006-06-18T09:52:29Z</time></trkpt>
<trkpt lat="46.27188206" lon="7.31904030"><ele>1036.919189</ele><time>2006-06-18T09:52:49Z</time></trkpt>
<trkpt lat="46.27171040" lon="7.31901884"><ele>1033.554443</ele><time>2006-06-18T09:55:07Z</time></trkpt>
<trkpt lat="46.27132416" lon="7.31878281"><ele>1034.515869</ele><time>2006-06-18T09:55:15Z</time></trkpt>
<trkpt lat="46.27076626" lon="7.31828928"><ele>1031.151367</ele><time>2006-06-18T09:55:23Z</time></trkpt>
<trkpt lat="46.27038002" lon="7.31779575"><ele>1027.786621</ele><time>2006-06-18T09:55:28Z</time></trkpt>
<trkpt lat="46.26975775" lon="7.31760263"><ele>1023.941406</ele><time>2006-06-18T09:55:34Z</time></trkpt>
<trkpt lat="46.26935005" lon="7.31792450"><ele>1022.499512</ele><time>2006-06-18T09:55:38Z</time></trkpt>
<trkpt lat="46.26887798" lon="7.31794596"><ele>1020.576904</ele><time>2006-06-18T09:55:42Z</time></trkpt>
<trkpt lat="46.26857758" lon="7.31760263"><ele>1017.692627</ele><time>2006-06-18T09:55:45Z</time></trkpt>
<trkpt lat="46.26810551" lon="7.31695890"><ele>1010.963623</ele><time>2006-06-18T09:55:50Z</time></trkpt>
<trkpt lat="46.26782656" lon="7.31607914"><ele>1007.118408</ele><time>2006-06-18T09:55:55Z</time></trkpt>
<trkpt lat="46.26793385" lon="7.31549978"><ele>1004.715088</ele><time>2006-06-18T09:55:58Z</time></trkpt>
<trkpt lat="46.26836300" lon="7.31496334"><ele>1002.311523</ele><time>2006-06-18T09:56:02Z</time></trkpt>
<trkpt lat="46.26864195" lon="7.31425524"><ele>998.466309</ele><time>2006-06-18T09:56:06Z</time></trkpt>
<trkpt lat="46.26879215" lon="7.31324673"><ele>995.101807</ele><time>2006-06-18T09:56:11Z</time></trkpt>
<trkpt lat="46.26866341" lon="7.31268883"><ele>994.140625</ele><time>2006-06-18T09:56:15Z</time></trkpt>
<trkpt lat="46.26836300" lon="7.31266737"><ele>993.179199</ele><time>2006-06-18T09:56:18Z</time></trkpt>
<trkpt lat="46.26819134" lon="7.31277466"><ele>993.179199</ele><time>2006-06-18T09:56:20Z</time></trkpt>
<trkpt lat="46.26761198" lon="7.31339693"><ele>992.218018</ele><time>2006-06-18T09:56:30Z</time></trkpt>
<trkpt lat="46.26707554" lon="7.31404066"><ele>988.853516</ele><time>2006-06-18T09:56:46Z</time></trkpt>
<trkpt lat="46.26688242" lon="7.31464148"><ele>987.891846</ele><time>2006-06-18T09:57:00Z</time></trkpt>
<trkpt lat="46.26681805" lon="7.31522083"><ele>987.891846</ele><time>2006-06-18T09:57:12Z</time></trkpt>
<trkpt lat="46.26653910" lon="7.31524229"><ele>990.29541</ele><time>2006-06-18T09:57:20Z</time></trkpt>
<trkpt lat="46.26600266" lon="7.31496334"><ele>987.891846</ele><time>2006-06-18T09:57:32Z</time></trkpt>
<trkpt lat="46.26452208" lon="7.31500626"><ele>980.201416</ele><time>2006-06-18T09:57:54Z</time></trkpt>
<trkpt lat="46.26430750" lon="7.31474876"><ele>977.317627</ele><time>2006-06-18T09:57:58Z</time></trkpt>
<trkpt lat="46.26398563" lon="7.31408358"><ele>976.356201</ele><time>2006-06-18T09:58:04Z</time></trkpt>
<trkpt lat="46.26289129" lon="7.31296778"><ele>975.875488</ele><time>2006-06-18T09:58:18Z</time></trkpt>
<trkpt lat="46.26186132" lon="7.31153011"><ele>976.836914</ele><time>2006-06-18T09:58:37Z</time></trkpt>
<trkpt lat="46.26111031" lon="7.31065035"><ele>974.433594</ele><time>2006-06-18T09:58:50Z</time></trkpt>
<trkpt lat="46.26085281" lon="7.31047869"><ele>973.952881</ele><time>2006-06-18T09:58:54Z</time></trkpt>
<trkpt lat="46.25995159" lon="7.31017828"><ele>973.472412</ele><time>2006-06-18T09:59:08Z</time></trkpt>
<trkpt lat="46.25947952" lon="7.31022120"><ele>971.549316</ele><time>2006-06-18T09:59:16Z</time></trkpt>
<trkpt lat="46.25924349" lon="7.31015682"><ele>971.068848</ele><time>2006-06-18T09:59:21Z</time></trkpt>
<trkpt lat="46.25890017" lon="7.30987787"><ele>970.107422</ele><time>2006-06-18T09:59:27Z</time></trkpt>
<trkpt lat="46.25853539" lon="7.30925560"><ele>968.665527</ele><time>2006-06-18T09:59:33Z</time></trkpt>
<trkpt lat="46.25836372" lon="7.30844021"><ele>964.820313</ele><time>2006-06-18T09:59:39Z</time></trkpt>
<trkpt lat="46.25808477" lon="7.30783939"><ele>962.416992</ele><time>2006-06-18T09:59:44Z</time></trkpt>
<trkpt lat="46.25793457" lon="7.30713129"><ele>959.533203</ele><time>2006-06-18T09:59:49Z</time></trkpt>
<trkpt lat="46.25761271" lon="7.30689526"><ele>957.129883</ele><time>2006-06-18T09:59:53Z</time></trkpt>
<trkpt lat="46.25741959" lon="7.30687380"><ele>955.687744</ele><time>2006-06-18T09:59:55Z</time></trkpt>
<trkpt lat="46.25707626" lon="7.30659485"><ele>952.803711</ele><time>2006-06-18T09:59:59Z</time></trkpt>
<trkpt lat="46.25684023" lon="7.30629444"><ele>950.400635</ele><time>2006-06-18T10:00:02Z</time></trkpt>
<trkpt lat="46.25645399" lon="7.30605841"><ele>948.477783</ele><time>2006-06-18T10:00:06Z</time></trkpt>
<trkpt lat="46.25619650" lon="7.30567217"><ele>946.55542</ele><time>2006-06-18T10:00:11Z</time></trkpt>
<trkpt lat="46.25611067" lon="7.30569363"><ele>945.593994</ele><time>2006-06-18T10:00:15Z</time></trkpt>
<trkpt lat="46.25634670" lon="7.30610132"><ele>943.190674</ele><time>2006-06-18T10:00:21Z</time></trkpt>
<trkpt lat="46.25692606" lon="7.30689526"><ele>935.980713</ele><time>2006-06-18T10:00:30Z</time></trkpt>
<trkpt lat="46.25714064" lon="7.30715275"><ele>934.058105</ele><time>2006-06-18T10:00:33Z</time></trkpt>
<trkpt lat="46.25735521" lon="7.30730295"><ele>933.09668</ele><time>2006-06-18T10:00:36Z</time></trkpt>
<trkpt lat="46.25748396" lon="7.30751753"><ele>932.616211</ele><time>2006-06-18T10:00:40Z</time></trkpt>
<trkpt lat="46.25636816" lon="7.30715275"><ele>919.157715</ele><time>2006-06-18T10:00:54Z</time></trkpt>
<trkpt lat="46.25566006" lon="7.30732441"><ele>912.90918</ele><time>2006-06-18T10:01:01Z</time></trkpt>
<trkpt lat="46.25533819" lon="7.30715275"><ele>911.467285</ele><time>2006-06-18T10:01:06Z</time></trkpt>
<trkpt lat="46.25512362" lon="7.30687380"><ele>911.467285</ele><time>2006-06-18T10:01:10Z</time></trkpt>
<trkpt lat="46.25497341" lon="7.30653048"><ele>911.947998</ele><time>2006-06-18T10:01:14Z</time></trkpt>
<trkpt lat="46.25475883" lon="7.30631590"><ele>910.986572</ele><time>2006-06-18T10:01:18Z</time></trkpt>
<trkpt lat="46.25411510" lon="7.30597258"><ele>908.102783</ele><time>2006-06-18T10:01:26Z</time></trkpt>
<trkpt lat="46.25353575" lon="7.30584383"><ele>903.295898</ele><time>2006-06-18T10:01:32Z</time></trkpt>
<trkpt lat="46.25314951" lon="7.30539322"><ele>898.969971</ele><time>2006-06-18T10:01:37Z</time></trkpt>
<trkpt lat="46.25263453" lon="7.30498552"><ele>894.163574</ele><time>2006-06-18T10:01:43Z</time></trkpt>
<trkpt lat="46.25239849" lon="7.30449200"><ele>889.837402</ele><time>2006-06-18T10:01:47Z</time></trkpt>
<trkpt lat="46.25177622" lon="7.30352640"><ele>882.627686</ele><time>2006-06-18T10:01:55Z</time></trkpt>
<trkpt lat="46.25048876" lon="7.30221748"><ele>870.611084</ele><time>2006-06-18T10:02:08Z</time></trkpt>
<trkpt lat="46.25036001" lon="7.30215311"><ele>869.649902</ele><time>2006-06-18T10:02:09Z</time></trkpt>
<trkpt lat="46.24939442" lon="7.30183125"><ele>861.47876</ele><time>2006-06-18T10:02:17Z</time></trkpt>
<trkpt lat="46.24866486" lon="7.30202436"><ele>857.152588</ele><time>2006-06-18T10:02:23Z</time></trkpt>
<trkpt lat="46.24742031" lon="7.30206728"><ele>845.13623</ele><time>2006-06-18T10:02:33Z</time></trkpt>
<trkpt lat="46.24681950" lon="7.30251789"><ele>840.810059</ele><time>2006-06-18T10:02:39Z</time></trkpt>
<trkpt lat="46.24630451" lon="7.30268955"><ele>836.003662</ele><time>2006-06-18T10:02:44Z</time></trkpt>
<trkpt lat="46.24598265" lon="7.30217457"><ele>833.600342</ele><time>2006-06-18T10:02:49Z</time></trkpt>
<trkpt lat="46.24557495" lon="7.30086565"><ele>830.716553</ele><time>2006-06-18T10:02:59Z</time></trkpt>
<trkpt lat="46.24527454" lon="7.30028629"><ele>829.274414</ele><time>2006-06-18T10:03:04Z</time></trkpt>
<trkpt lat="46.24521017" lon="7.29977131"><ele>827.832275</ele><time>2006-06-18T10:03:08Z</time></trkpt>
<trkpt lat="46.24512434" lon="7.29859114"><ele>824.467773</ele><time>2006-06-18T10:03:17Z</time></trkpt>
<trkpt lat="46.24488831" lon="7.29807615"><ele>823.025879</ele><time>2006-06-18T10:03:22Z</time></trkpt>
<trkpt lat="46.24385834" lon="7.29670286"><ele>819.661377</ele><time>2006-06-18T10:03:39Z</time></trkpt>
<trkpt lat="46.24372959" lon="7.29655266"><ele>819.180664</ele><time>2006-06-18T10:03:41Z</time></trkpt>
<trkpt lat="46.24351501" lon="7.29635954"><ele>819.180664</ele><time>2006-06-18T10:03:44Z</time></trkpt>
<trkpt lat="46.24287128" lon="7.29614496"><ele>817.738525</ele><time>2006-06-18T10:03:53Z</time></trkpt>
<trkpt lat="46.24203444" lon="7.29578018"><ele>815.335449</ele><time>2006-06-18T10:04:05Z</time></trkpt>
<trkpt lat="46.24124050" lon="7.29571581"><ele>814.374023</ele><time>2006-06-18T10:04:16Z</time></trkpt>
<trkpt lat="46.24072552" lon="7.29562998"><ele>812.451416</ele><time>2006-06-18T10:04:23Z</time></trkpt>
<trkpt lat="46.24003887" lon="7.29500771"><ele>808.605957</ele><time>2006-06-18T10:04:35Z</time></trkpt>
<trkpt lat="46.23967409" lon="7.29449272"><ele>806.202637</ele><time>2006-06-18T10:04:47Z</time></trkpt>
<trkpt lat="46.23943806" lon="7.29429960"><ele>806.202637</ele><time>2006-06-18T10:04:56Z</time></trkpt>
<trkpt lat="46.23877287" lon="7.29361296"><ele>803.318848</ele><time>2006-06-18T10:05:16Z</time></trkpt>
<trkpt lat="46.23851538" lon="7.29309797"><ele>799.473633</ele><time>2006-06-18T10:05:26Z</time></trkpt>
<trkpt lat="46.23819351" lon="7.29230404"><ele>797.551025</ele><time>2006-06-18T10:05:39Z</time></trkpt>
<trkpt lat="46.23806477" lon="7.29228258"><ele>797.551025</ele><time>2006-06-18T10:05:43Z</time></trkpt>
<trkpt lat="46.23754978" lon="7.29260445"><ele>791.302246</ele><time>2006-06-18T10:05:53Z</time></trkpt>
<trkpt lat="46.23731375" lon="7.29309797"><ele>786.49585</ele><time>2006-06-18T10:05:58Z</time></trkpt>
<trkpt lat="46.23720646" lon="7.29359150"><ele>782.650635</ele><time>2006-06-18T10:06:02Z</time></trkpt>
<trkpt lat="46.23727083" lon="7.29457855"><ele>774.959961</ele><time>2006-06-18T10:06:09Z</time></trkpt>
<trkpt lat="46.23787165" lon="7.29603767"><ele>763.424072</ele><time>2006-06-18T10:06:20Z</time></trkpt>
<trkpt lat="46.23836517" lon="7.29665995"><ele>757.65625</ele><time>2006-06-18T10:06:28Z</time></trkpt>
<trkpt lat="46.23862267" lon="7.29726076"><ele>749.96582</ele><time>2006-06-18T10:06:35Z</time></trkpt>
<trkpt lat="46.23909473" lon="7.29923487"><ele>728.335938</ele><time>2006-06-18T10:06:52Z</time></trkpt>
<trkpt lat="46.23943806" lon="7.30035067"><ele>711.512939</ele><time>2006-06-18T10:07:06Z</time></trkpt>
<trkpt lat="46.23945951" lon="7.30071545"><ele>703.82251</ele><time>2006-06-18T10:07:10Z</time></trkpt>
<trkpt lat="46.23969555" lon="7.30103731"><ele>699.496338</ele><time>2006-06-18T10:07:15Z</time></trkpt>
<trkpt lat="46.23991013" lon="7.30120897"><ele>698.054443</ele><time>2006-06-18T10:07:18Z</time></trkpt>
<trkpt lat="46.24006033" lon="7.30157375"><ele>692.286621</ele><time>2006-06-18T10:07:22Z</time></trkpt>
<trkpt lat="46.24016762" lon="7.30228186"><ele>684.596191</ele><time>2006-06-18T10:07:27Z</time></trkpt>
<trkpt lat="46.24033928" lon="7.30294704"><ele>680.27002</ele><time>2006-06-18T10:07:32Z</time></trkpt>
<trkpt lat="46.24061823" lon="7.30341911"><ele>676.905518</ele><time>2006-06-18T10:07:37Z</time></trkpt>
<trkpt lat="46.24070406" lon="7.30378389"><ele>670.17627</ele><time>2006-06-18T10:07:42Z</time></trkpt>
<trkpt lat="46.24072552" lon="7.30408430"><ele>665.850342</ele><time>2006-06-18T10:07:46Z</time></trkpt>
<trkpt lat="46.24059677" lon="7.30414867"><ele>662.966309</ele><time>2006-06-18T10:07:50Z</time></trkpt>
<trkpt lat="46.24006033" lon="7.30395555"><ele>663.447021</ele><time>2006-06-18T10:07:59Z</time></trkpt>
<trkpt lat="46.23975992" lon="7.30391264"><ele>663.92749</ele><time>2006-06-18T10:08:05Z</time></trkpt>
<trkpt lat="46.23952389" lon="7.30359077"><ele>666.811523</ele><time>2006-06-18T10:08:13Z</time></trkpt>
<trkpt lat="46.23924494" lon="7.30298996"><ele>669.215088</ele><time>2006-06-18T10:08:26Z</time></trkpt>
<trkpt lat="46.23870850" lon="7.30247498"><ele>671.137695</ele><time>2006-06-18T10:08:41Z</time></trkpt>
<trkpt lat="46.23842955" lon="7.30213165"><ele>671.618164</ele><time>2006-06-18T10:08:49Z</time></trkpt>
<trkpt lat="46.23789310" lon="7.30086565"><ele>673.541016</ele><time>2006-06-18T10:09:09Z</time></trkpt>
<trkpt lat="46.23733521" lon="7.30020046"><ele>673.060303</ele><time>2006-06-18T10:09:22Z</time></trkpt>
<trkpt lat="46.23684168" lon="7.29983568"><ele>672.57959</ele><time>2006-06-18T10:09:32Z</time></trkpt>
<trkpt lat="46.23609066" lon="7.29951382"><ele>670.656982</ele><time>2006-06-18T10:09:46Z</time></trkpt>
<trkpt lat="46.23581171" lon="7.29929924"><ele>669.215088</ele><time>2006-06-18T10:09:51Z</time></trkpt>
<trkpt lat="46.23523235" lon="7.29833364"><ele>667.292236</ele><time>2006-06-18T10:10:04Z</time></trkpt>
<trkpt lat="46.23503923" lon="7.29814053"><ele>667.292236</ele><time>2006-06-18T10:10:08Z</time></trkpt>
<trkpt lat="46.23484612" lon="7.29781866"><ele>665.369629</ele><time>2006-06-18T10:10:13Z</time></trkpt>
<trkpt lat="46.23473883" lon="7.29756117"><ele>662.485596</ele><time>2006-06-18T10:10:16Z</time></trkpt>
<trkpt lat="46.23437405" lon="7.29704618"><ele>653.833984</ele><time>2006-06-18T10:10:25Z</time></trkpt>
<trkpt lat="46.23422384" lon="7.29715347"><ele>651.43042</ele><time>2006-06-18T10:10:29Z</time></trkpt>
<trkpt lat="46.23415947" lon="7.29784012"><ele>645.662598</ele><time>2006-06-18T10:10:36Z</time></trkpt>
<trkpt lat="46.23433113" lon="7.29865551"><ele>641.33667</ele><time>2006-06-18T10:10:42Z</time></trkpt>
<trkpt lat="46.23443842" lon="7.29942799"><ele>637.491455</ele><time>2006-06-18T10:10:48Z</time></trkpt>
<trkpt lat="46.23448133" lon="7.30007172"><ele>631.723389</ele><time>2006-06-18T10:10:53Z</time></trkpt>
<trkpt lat="46.23458862" lon="7.30088711"><ele>624.032959</ele><time>2006-06-18T10:11:01Z</time></trkpt>
<trkpt lat="46.23450279" lon="7.30110168"><ele>622.591064</ele><time>2006-06-18T10:11:06Z</time></trkpt>
<trkpt lat="46.23437405" lon="7.30095148"><ele>621.14917</ele><time>2006-06-18T10:11:09Z</time></trkpt>
<trkpt lat="46.23422384" lon="7.30062962"><ele>619.226318</ele><time>2006-06-18T10:11:13Z</time></trkpt>
<trkpt lat="46.23403072" lon="7.30060816"><ele>616.822998</ele><time>2006-06-18T10:11:17Z</time></trkpt>
<trkpt lat="46.23409510" lon="7.30112314"><ele>611.535889</ele><time>2006-06-18T10:11:26Z</time></trkpt>
<trkpt lat="46.23336554" lon="7.30032921"><ele>596.635498</ele><time>2006-06-18T10:11:40Z</time></trkpt>
<trkpt lat="46.23302221" lon="7.30037212"><ele>588.464355</ele><time>2006-06-18T10:11:45Z</time></trkpt>
<trkpt lat="46.23267889" lon="7.30047941"><ele>580.292969</ele><time>2006-06-18T10:11:50Z</time></trkpt>
<trkpt lat="46.23252869" lon="7.30020046"><ele>574.044434</ele><time>2006-06-18T10:11:55Z</time></trkpt>
<trkpt lat="46.23248577" lon="7.29964256"><ele>567.795654</ele><time>2006-06-18T10:11:59Z</time></trkpt>
<trkpt lat="46.23239994" lon="7.29917049"><ele>563.469971</ele><time>2006-06-18T10:12:02Z</time></trkpt>
<trkpt lat="46.23194933" lon="7.29848385"><ele>555.779297</ele><time>2006-06-18T10:12:08Z</time></trkpt>
<trkpt lat="46.23098373" lon="7.29764700"><ele>549.050049</ele><time>2006-06-18T10:12:18Z</time></trkpt>
<trkpt lat="46.23076916" lon="7.29728222"><ele>545.204834</ele><time>2006-06-18T10:12:23Z</time></trkpt>
<trkpt lat="46.23031855" lon="7.29704618"><ele>537.033691</ele><time>2006-06-18T10:12:29Z</time></trkpt>
<trkpt lat="46.22997522" lon="7.29672432"><ele>529.82373</ele><time>2006-06-18T10:12:34Z</time></trkpt>
<trkpt lat="46.22961044" lon="7.29620934"><ele>522.133179</ele><time>2006-06-18T10:12:42Z</time></trkpt>
<trkpt lat="46.22937441" lon="7.29599476"><ele>517.807251</ele><time>2006-06-18T10:12:45Z</time></trkpt>
<trkpt lat="46.22900963" lon="7.29545832"><ele>511.558716</ele><time>2006-06-18T10:12:50Z</time></trkpt>
<trkpt lat="46.22851610" lon="7.29502916"><ele>507.713501</ele><time>2006-06-18T10:12:57Z</time></trkpt>
<trkpt lat="46.22834444" lon="7.29455709"><ele>505.790894</ele><time>2006-06-18T10:13:04Z</time></trkpt>
<trkpt lat="46.22832298" lon="7.29429960"><ele>505.310181</ele><time>2006-06-18T10:13:07Z</time></trkpt>
<trkpt lat="46.22845173" lon="7.29350567"><ele>503.868164</ele><time>2006-06-18T10:13:17Z</time></trkpt>
<trkpt lat="46.22862339" lon="7.29303360"><ele>502.906738</ele><time>2006-06-18T10:13:24Z</time></trkpt>
<trkpt lat="46.22858047" lon="7.29281902"><ele>502.906738</ele><time>2006-06-18T10:13:27Z</time></trkpt>
<trkpt lat="46.22808695" lon="7.29187489"><ele>504.348877</ele><time>2006-06-18T10:13:40Z</time></trkpt>
<trkpt lat="46.22767925" lon="7.29054451"><ele>503.868164</ele><time>2006-06-18T10:13:55Z</time></trkpt>
<trkpt lat="46.22757196" lon="7.28979349"><ele>502.906738</ele><time>2006-06-18T10:14:03Z</time></trkpt>
<trkpt lat="46.22761488" lon="7.28854895"><ele>500.022949</ele><time>2006-06-18T10:14:17Z</time></trkpt>
<trkpt lat="46.22742176" lon="7.28751898"><ele>499.061523</ele><time>2006-06-18T10:14:29Z</time></trkpt>
<trkpt lat="46.22718573" lon="7.28490114"><ele>503.387451</ele><time>2006-06-18T10:15:06Z</time></trkpt>
<trkpt lat="46.22722864" lon="7.28479385"><ele>503.868164</ele><time>2006-06-18T10:15:09Z</time></trkpt>
<trkpt lat="46.22718573" lon="7.28430033"><ele>501.945557</ele><time>2006-06-18T10:15:18Z</time></trkpt>
<trkpt lat="46.22671366" lon="7.28185415"><ele>501.945557</ele><time>2006-06-18T10:15:48Z</time></trkpt>
<trkpt lat="46.22671366" lon="7.28099585"><ele>503.387451</ele><time>2006-06-18T10:16:02Z</time></trkpt>
<trkpt lat="46.22654200" lon="7.28005171"><ele>501.464844</ele><time>2006-06-18T10:16:19Z</time></trkpt>
<trkpt lat="46.22559786" lon="7.27957964"><ele>495.216187</ele><time>2006-06-18T10:16:41Z</time></trkpt>
<trkpt lat="46.22549057" lon="7.27975130"><ele>494.255005</ele><time>2006-06-18T10:16:48Z</time></trkpt>
<trkpt lat="46.22523308" lon="7.27953672"><ele>494.255005</ele><time>2006-06-18T10:16:56Z</time></trkpt>
<trkpt lat="46.22465372" lon="7.27923632"><ele>491.851685</ele><time>2006-06-18T10:17:06Z</time></trkpt>
<trkpt lat="46.22458935" lon="7.27945089"><ele>490.890381</ele><time>2006-06-18T10:17:11Z</time></trkpt>
<trkpt lat="46.22456789" lon="7.27975130"><ele>489.929077</ele><time>2006-06-18T10:17:17Z</time></trkpt>
<trkpt lat="46.22446060" lon="7.27985859"><ele>488.967773</ele><time>2006-06-18T10:17:23Z</time></trkpt>
<trkpt lat="46.22448206" lon="7.27994442"><ele>488.00647</ele><time>2006-06-18T10:17:26Z</time></trkpt>
<trkpt lat="46.22446060" lon="7.28003025"><ele>488.00647</ele><time>2006-06-18T10:17:38Z</time></trkpt>
</trkseg></trk></gpx>